METAR Analyzer

一覧表示

Hello, Guest. (Login)

TNCM/SXM  -  プリンセス・ジュリアナ/セントマーティン

観測日時
2021-08-05 02:00 (UTC) (20分前)
気温
28
露点
23
湿数
5
相対湿度
74.3%
QNH
1021hPa
推定現地気圧
1020.5hPa
推定海面気圧
1021.0hPa
体感温度
22.9
(無風時)
27
HI
31.3
気温前日比
±0
体感温度前日比
-0.1
HI前日比
-0.6
水平視程
>10000m
鉛直視程
データなし
雲底高度
No dense clouds
V/I
VMC (VFR)
RVR
No RVR data
卓越風
8kt from 60°
ガスト
No gust
降水
報告なし
その他の天気
報告なし
少しの雲 @ 1800ft AGL

TNCM 050200Z 06008KT 9999 FEW018 28/23 Q1021

TIST/STT  -  シリル・E・キング